Time;durP1;ratioP1;P1;durP2;ratioP2;P2;SDS_P1;SDS_P2;PMS_P1;PMS_P2;Temp;Humidity;BMP_temperature;BMP_pressure;BME280_temperature;BME280_humidity;BME280_pressure;Samples;Min_cycle;Max_cycle;Signal;HPM_P1;HPM_P2
2021/08/20 00:00:08;;;;;;;12.60;5.80;;;;;;;;;;5057882;28;20521;-76
2021/08/20 00:02:35;;;;;;;13.23;5.63;;;;;;;;;;5058102;28;20041;-76
2021/08/20 00:05:01;;;;;;;6.47;5.15;;;;;;;;;;5058288;28;20021;-76
2021/08/20 00:07:27;;;;;;;12.23;5.20;;;;;;;;;;5058061;28;20021;-76
2021/08/20 00:09:54;;;;;;;10.32;4.90;;;;;;;;;;5058082;28;20052;-75
2021/08/20 00:12:20;;;;;;;6.78;3.75;;;;;;;;;;5057670;28;20506;-76
2021/08/20 00:14:46;;;;;;;11.90;4.50;;;;;;;;;;5057950;28;20029;-76
2021/08/20 00:17:13;;;;;;;8.32;4.13;;;;;;;;;;5056867;28;20017;-75
2021/08/20 00:19:39;;;;;;;12.88;5.60;;;;;;;;;;5056522;28;20396;-76
2021/08/20 00:22:06;;;;;;;19.90;10.63;;;;;;;;;;5056936;28;20041;-76
2021/08/20 00:24:32;;;;;;;14.82;8.43;;;;;;;;;;5056649;28;20021;-76
2021/08/20 00:26:58;;;;;;;20.38;12.65;;;;;;;;;;5057125;28;20037;-76
2021/08/20 00:29:24;;;;;;;26.45;15.65;;;;;;;;;;5057957;28;20021;-76
2021/08/20 00:31:50;;;;;;;29.33;14.65;;;;;;;;;;5056502;28;20320;-76
2021/08/20 00:34:16;;;;;;;28.38;15.75;;;;;;;;;;5056742;28;20124;-76
2021/08/20 00:36:43;;;;;;;24.50;16.23;;;;;;;;;;5057755;28;20025;-76
2021/08/20 00:39:09;;;;;;;26.55;16.27;;;;;;;;;;5057556;28;20017;-76
2021/08/20 00:41:35;;;;;;;27.27;15.82;;;;;;;;;;5057628;28;20092;-76
2021/08/20 00:44:01;;;;;;;24.88;15.35;;;;;;;;;;5056148;28;20037;-76
2021/08/20 00:46:27;;;;;;;23.90;15.30;;;;;;;;;;5057338;28;20029;-76
2021/08/20 00:48:54;;;;;;;25.42;15.77;;;;;;;;;;5057504;28;20101;-76
2021/08/20 00:51:29;;;;;;;28.00;16.38;;;;;;;;;;5056499;28;20037;-76
2021/08/20 00:53:56;;;;;;;22.67;13.02;;;;;;;;;;5057175;28;20107;-75
2021/08/20 00:56:22;;;;;;;18.38;12.13;;;;;;;;;;5056332;28;20045;-76
2021/08/20 00:58:49;;;;;;;19.80;10.63;;;;;;;;;;5055820;28;20041;-76
2021/08/20 01:01:15;;;;;;;18.85;10.23;;;;;;;;;;5056337;28;20136;-76
2021/08/20 01:03:41;;;;;;;18.73;10.13;;;;;;;;;;5056860;28;20055;-76
2021/08/20 01:06:07;;;;;;;19.63;11.48;;;;;;;;;;5057318;28;20021;-76
2021/08/20 01:08:34;;;;;;;23.38;11.48;;;;;;;;;;5057003;28;20070;-76
2021/08/20 01:11:10;;;;;;;18.45;10.18;;;;;;;;;;5056010;28;20025;-75
2021/08/20 01:16:39;;;;;;;;;;;;;;;;;;;;;
2021/08/20 01:19:32;;;;;;;15.30;8.63;;;;;;;;;;5005573;28;20461;-76
2021/08/20 01:22:08;;;;;;;;;;;;;;;;;;;;;
2021/08/20 01:24:35;;;;;;;17.92;8.13;;;;;;;;;;5005534;28;20445;-76
2021/08/20 01:27:10;;;;;;;15.95;8.02;;;;;;;;;;5038304;28;20032;-76
2021/08/20 01:29:41;;;;;;;14.60;6.47;;;;;;;;;;5055096;28;20044;-84
2021/08/20 01:32:13;;;;;;;15.30;6.93;;;;;;;;;;5057748;28;20036;-85
2021/08/20 01:34:42;;;;;;;18.92;7.45;;;;;;;;;;5042845;28;20028;-85
2021/08/20 01:37:10;;;;;;;11.98;6.45;;;;;;;;;;5059497;28;20407;-85
2021/08/20 01:39:42;;;;;;;13.57;6.75;;;;;;;;;;5059412;28;20104;-85
2021/08/20 01:42:09;;;;;;;11.50;5.90;;;;;;;;;;5059624;28;20128;-86
2021/08/20 01:44:35;;;;;;;12.00;4.75;;;;;;;;;;5059696;28;20421;-86
2021/08/20 01:47:08;;;;;;;9.32;3.67;;;;;;;;;;5042725;28;20029;-85
2021/08/20 01:49:36;;;;;;;11.68;4.05;;;;;;;;;;5059288;28;20028;-85
2021/08/20 01:52:05;;;;;;;10.63;3.42;;;;;;;;;;5059261;28;20021;-85
2021/08/20 01:54:31;;;;;;;15.30;3.97;;;;;;;;;;5060823;28;20435;-85
2021/08/20 01:56:57;;;;;;;16.35;4.05;;;;;;;;;;5061091;28;20330;-85
2021/08/20 01:59:23;;;;;;;7.43;3.78;;;;;;;;;;5060636;28;20055;-85
2021/08/20 02:01:49;;;;;;;8.73;3.90;;;;;;;;;;5060912;28;20032;-85
2021/08/20 02:04:15;;;;;;;14.75;4.38;;;;;;;;;;5060839;28;20021;-85
2021/08/20 02:06:41;;;;;;;11.05;3.70;;;;;;;;;;5060811;28;20025;-85
2021/08/20 02:09:07;;;;;;;9.45;3.83;;;;;;;;;;5060790;28;20028;-86
2021/08/20 02:11:34;;;;;;;7.40;3.63;;;;;;;;;;5060783;28;20407;-85
2021/08/20 02:14:00;;;;;;;8.52;3.85;;;;;;;;;;5060625;28;20033;-85
2021/08/20 02:16:26;;;;;;;10.07;3.97;;;;;;;;;;5060638;28;20033;-85
2021/08/20 02:19:28;;;;;;;8.43;3.50;;;;;;;;;;5059653;28;20438;-85
2021/08/20 02:21:54;;;;;;;10.73;4.50;;;;;;;;;;5038613;28;20468;-85
2021/08/20 02:24:20;;;;;;;8.55;3.88;;;;;;;;;;5038598;28;20030;-85
2021/08/20 02:26:46;;;;;;;9.77;3.75;;;;;;;;;;5022133;28;20114;-84
2021/08/20 02:29:12;;;;;;;11.57;4.30;;;;;;;;;;5038611;28;20056;-84
2021/08/20 02:31:38;;;;;;;7.80;4.38;;;;;;;;;;5038436;28;20034;-83
2021/08/20 02:34:04;;;;;;;11.68;4.45;;;;;;;;;;5038517;28;20076;-84
2021/08/20 02:36:30;;;;;;;9.43;4.40;;;;;;;;;;5021942;28;20035;-85
2021/08/20 02:38:56;;;;;;;8.82;4.65;;;;;;;;;;5038377;28;20044;-84
2021/08/20 02:41:24;;;;;;;9.85;4.60;;;;;;;;;;5022000;28;20025;-84
2021/08/20 02:43:50;;;;;;;11.13;4.43;;;;;;;;;;5022047;28;20041;-85
2021/08/20 02:46:16;;;;;;;8.98;4.45;;;;;;;;;;5038339;28;20363;-84
2021/08/20 02:48:42;;;;;;;12.20;4.60;;;;;;;;;;5038323;28;20048;-84
2021/08/20 02:51:09;;;;;;;18.88;5.47;;;;;;;;;;5038370;28;20068;-84
2021/08/20 02:53:36;;;;;;;10.55;5.07;;;;;;;;;;5021607;28;20324;-85
2021/08/20 02:56:02;;;;;;;11.80;5.43;;;;;;;;;;5038200;28;20419;-84
2021/08/20 02:58:28;;;;;;;11.57;5.65;;;;;;;;;;5056522;28;20411;-85
2021/08/20 03:00:54;;;;;;;12.43;5.15;;;;;;;;;;5059585;28;20051;-85
2021/08/20 03:03:20;;;;;;;10.57;5.78;;;;;;;;;;5059204;28;20130;-84
2021/08/20 03:05:46;;;;;;;16.80;5.57;;;;;;;;;;5059745;28;20025;-85
2021/08/20 03:08:12;;;;;;;12.43;5.30;;;;;;;;;;5058531;28;20071;-84
2021/08/20 03:10:40;;;;;;;12.10;5.20;;;;;;;;;;5059832;28;20021;-84
2021/08/20 03:13:07;;;;;;;9.50;5.30;;;;;;;;;;5059486;28;20028;-84
2021/08/20 03:15:33;;;;;;;9.35;4.70;;;;;;;;;;5058635;28;20040;-84
2021/08/20 03:17:59;;;;;;;9.73;5.00;;;;;;;;;;5059424;28;20032;-84
2021/08/20 03:20:25;;;;;;;10.35;4.70;;;;;;;;;;5058365;28;20032;-84
2021/08/20 03:22:51;;;;;;;11.23;4.90;;;;;;;;;;5059140;28;20021;-84
2021/08/20 03:25:17;;;;;;;10.93;5.25;;;;;;;;;;5058187;28;20025;-84
2021/08/20 03:27:43;;;;;;;11.60;5.05;;;;;;;;;;5059329;28;20071;-84
2021/08/20 04:11:58;;;;;;;8.98;5.40;;;;;;;;;;5053848;28;20044;-85
2021/08/20 04:14:24;;;;;;;12.55;5.60;;;;;;;;;;5056519;28;20462;-84
2021/08/20 04:16:50;;;;;;;15.88;6.18;;;;;;;;;;5056526;28;20465;-84
2021/08/20 04:19:16;;;;;;;15.35;6.47;;;;;;;;;;5056483;28;20040;-84
2021/08/20 04:21:44;;;;;;;18.90;6.30;;;;;;;;;;5056409;28;20071;-84
2021/08/20 04:24:14;;;;;;;11.65;5.88;;;;;;;;;;5056285;28;20037;-84
2021/08/20 04:26:41;;;;;;;13.48;6.07;;;;;;;;;;5056444;28;20033;-84
2021/08/20 04:29:07;;;;;;;15.25;5.75;;;;;;;;;;5055795;28;20041;-83
2021/08/20 04:31:33;;;;;;;16.48;5.65;;;;;;;;;;5056187;28;20032;-84
2021/08/20 04:33:59;;;;;;;16.90;5.72;;;;;;;;;;5058752;28;20056;-84
2021/08/20 04:36:25;;;;;;;16.65;6.43;;;;;;;;;;5098261;28;20052;-84
2021/08/20 04:38:51;;;;;;;14.35;5.72;;;;;;;;;;5098012;28;20311;-84
2021/08/20 04:41:17;;;;;;;18.95;6.32;;;;;;;;;;5097981;28;20425;-85
2021/08/20 04:43:43;;;;;;;21.30;6.47;;;;;;;;;;5080034;28;20362;-84
2021/08/20 04:46:09;;;;;;;20.80;6.35;;;;;;;;;;5098170;28;20020;-84
2021/08/20 04:48:35;;;;;;;17.27;6.05;;;;;;;;;;5098136;28;20046;-84
2021/08/20 04:51:01;;;;;;;25.02;6.10;;;;;;;;;;5098030;28;20024;-84
2021/08/20 04:53:30;;;;;;;19.10;5.68;;;;;;;;;;5079799;28;20115;-84
2021/08/20 04:55:56;;;;;;;21.70;5.70;;;;;;;;;;5097762;28;20036;-83
2021/08/20 04:58:22;;;;;;;17.00;6.05;;;;;;;;;;5097709;28;20032;-83
2021/08/20 05:00:49;;;;;;;15.65;5.50;;;;;;;;;;5097571;28;20107;-85
2021/08/20 05:03:15;;;;;;;16.25;5.50;;;;;;;;;;5097381;28;20024;-84
2021/08/20 05:05:42;;;;;;;18.85;5.60;;;;;;;;;;5096728;28;20330;-84
2021/08/20 05:08:08;;;;;;;16.23;4.90;;;;;;;;;;5097501;28;20047;-83
2021/08/20 05:10:34;;;;;;;11.60;4.90;;;;;;;;;;5097627;28;20046;-85
2021/08/20 05:13:00;;;;;;;9.20;4.63;;;;;;;;;;5097357;28;20048;-84
2021/08/20 05:15:27;;;;;;;9.82;4.20;;;;;;;;;;5097532;28;20083;-84
2021/08/20 05:17:57;;;;;;;8.07;4.40;;;;;;;;;;5097701;28;20024;-84
2021/08/20 05:20:23;;;;;;;14.48;4.47;;;;;;;;;;5097665;28;20057;-84
2021/08/20 05:22:51;;;;;;;8.77;4.50;;;;;;;;;;5097160;28;20024;-83
2021/08/20 05:25:18;;;;;;;10.05;4.93;;;;;;;;;;5097298;28;20074;-84
2021/08/20 05:27:44;;;;;;;11.60;6.47;;;;;;;;;;5079488;28;20024;-84
2021/08/20 05:30:10;;;;;;;11.43;6.10;;;;;;;;;;5079646;28;20119;-83
2021/08/20 05:32:37;;;;;;;11.65;5.28;;;;;;;;;;5079349;28;20115;-85
2021/08/20 05:35:04;;;;;;;8.15;4.50;;;;;;;;;;5079816;28;20052;-84
2021/08/20 05:37:30;;;;;;;9.18;4.10;;;;;;;;;;5079314;28;20024;-83
2021/08/20 05:39:56;;;;;;;10.68;4.88;;;;;;;;;;5097255;28;20024;-83
2021/08/20 05:42:22;;;;;;;8.55;4.65;;;;;;;;;;5079280;28;20035;-84
2021/08/20 05:44:48;;;;;;;8.00;5.10;;;;;;;;;;5097315;28;20063;-84
2021/08/20 05:47:14;;;;;;;9.40;6.60;;;;;;;;;;5097540;28;20024;-85
2021/08/20 05:49:40;;;;;;;8.13;4.82;;;;;;;;;;5097394;28;20020;-84
2021/08/20 05:52:07;;;;;;;7.25;5.20;;;;;;;;;;5097345;28;20032;-84
2021/08/20 05:54:33;;;;;;;11.50;4.75;;;;;;;;;;5097365;28;20024;-84
2021/08/20 05:56:59;;;;;;;10.90;4.68;;;;;;;;;;5097178;28;20032;-84
2021/08/20 05:59:25;;;;;;;8.30;4.40;;;;;;;;;;5096846;28;20028;-85
2021/08/20 06:01:51;;;;;;;8.65;3.80;;;;;;;;;;5079281;28;20064;-84
2021/08/20 06:04:18;;;;;;;5.93;4.07;;;;;;;;;;5097081;28;20020;-83
2021/08/20 06:06:44;;;;;;;8.88;5.95;;;;;;;;;;5097232;28;20020;-84
2021/08/20 06:09:10;;;;;;;23.13;6.47;;;;;;;;;;5096761;28;20020;-84
2021/08/20 06:11:36;;;;;;;9.00;3.90;;;;;;;;;;5097044;28;20107;-84
2021/08/20 06:14:02;;;;;;;5.97;3.92;;;;;;;;;;5078923;28;20086;-84
2021/08/20 06:16:28;;;;;;;5.18;3.22;;;;;;;;;;5096829;28;20035;-83
2021/08/20 06:18:54;;;;;;;6.20;3.40;;;;;;;;;;5099873;28;20437;-83
2021/08/20 06:21:20;;;;;;;8.27;4.53;;;;;;;;;;5082596;28;20051;-83
2021/08/20 06:23:46;;;;;;;10.48;3.80;;;;;;;;;;5082702;28;20032;-83
2021/08/20 06:26:12;;;;;;;11.30;6.60;;;;;;;;;;5100541;28;20059;-84
2021/08/20 06:28:38;;;;;;;6.10;3.92;;;;;;;;;;5100574;28;20032;-84
2021/08/20 06:31:04;;;;;;;7.32;3.53;;;;;;;;;;5100620;28;20047;-84
2021/08/20 06:33:31;;;;;;;4.75;3.20;;;;;;;;;;5082821;28;20334;-85
2021/08/20 06:35:57;;;;;;;6.40;4.10;;;;;;;;;;5100678;28;20432;-84
2021/08/20 06:38:23;;;;;;;5.43;3.50;;;;;;;;;;5100706;28;20028;-85
2021/08/20 06:40:50;;;;;;;9.75;3.95;;;;;;;;;;5100511;28;20024;-85
2021/08/20 06:43:16;;;;;;;7.85;4.68;;;;;;;;;;5100207;28;20070;-84
2021/08/20 06:45:42;;;;;;;6.65;3.95;;;;;;;;;;5100396;28;20024;-84
2021/08/20 06:48:08;;;;;;;10.35;5.70;;;;;;;;;;5082242;28;20381;-84
2021/08/20 06:50:34;;;;;;;7.68;4.35;;;;;;;;;;5100258;28;20031;-85
2021/08/20 06:53:00;;;;;;;6.40;3.75;;;;;;;;;;5100431;28;20295;-84
2021/08/20 06:55:26;;;;;;;6.95;4.82;;;;;;;;;;5100089;28;20032;-84
2021/08/20 06:57:52;;;;;;;6.95;5.15;;;;;;;;;;5081971;28;20059;-84
2021/08/20 07:00:18;;;;;;;8.32;4.40;;;;;;;;;;5099829;28;20028;-84
2021/08/20 07:02:46;;;;;;;6.40;4.43;;;;;;;;;;5100163;28;20028;-84
2021/08/20 07:05:12;;;;;;;5.57;3.20;;;;;;;;;;5100226;28;20024;-84
2021/08/20 07:07:38;;;;;;;4.68;2.33;;;;;;;;;;5099697;28;20402;-85
2021/08/20 07:10:12;;;;;;;5.00;2.35;;;;;;;;;;5100107;28;20051;-85
2021/08/20 07:12:38;;;;;;;6.60;3.63;;;;;;;;;;5099669;28;20032;-85
2021/08/20 07:15:05;;;;;;;4.93;2.80;;;;;;;;;;5099793;28;20028;-85
2021/08/20 07:17:31;;;;;;;6.82;3.95;;;;;;;;;;5099847;28;20406;-85
2021/08/20 07:19:57;;;;;;;7.50;2.35;;;;;;;;;;5099730;28;20467;-86
2021/08/20 07:22:23;;;;;;;6.20;3.03;;;;;;;;;;5081759;28;20067;-85
2021/08/20 07:24:50;;;;;;;9.75;3.28;;;;;;;;;;5099694;28;20024;-85
2021/08/20 07:27:16;;;;;;;6.03;3.15;;;;;;;;;;5081667;28;20119;-85
2021/08/20 07:29:42;;;;;;;3.85;2.80;;;;;;;;;;5098736;28;20108;-85
2021/08/20 07:32:08;;;;;;;3.55;2.15;;;;;;;;;;5099629;28;20028;-85
2021/08/20 07:34:34;;;;;;;7.28;4.03;;;;;;;;;;5099623;28;20046;-85
2021/08/20 07:37:00;;;;;;;9.88;5.22;;;;;;;;;;5099046;28;20020;-87
2021/08/20 07:39:27;;;;;;;5.70;2.40;;;;;;;;;;5081640;28;20120;-86
2021/08/20 07:41:54;;;;;;;3.85;3.20;;;;;;;;;;5099340;28;20019;-86
2021/08/20 07:44:20;;;;;;;5.22;2.55;;;;;;;;;;5104463;28;20448;-86
2021/08/20 07:46:46;;;;;;;9.75;2.40;;;;;;;;;;5101993;28;20023;-87
2021/08/20 07:49:12;;;;;;;3.80;2.15;;;;;;;;;;5119959;28;20023;-86
2021/08/20 07:51:38;;;;;;;5.82;2.28;;;;;;;;;;5118206;28;20012;-86
2021/08/20 07:54:04;;;;;;;4.57;2.50;;;;;;;;;;5101622;28;20321;-85
2021/08/20 07:56:30;;;;;;;3.03;2.30;;;;;;;;;;5100973;28;20031;-86
2021/08/20 07:58:57;;;;;;;4.28;2.22;;;;;;;;;;5119553;28;20491;-86
2021/08/20 08:01:23;;;;;;;6.35;2.50;;;;;;;;;;5101247;28;20327;-87
2021/08/20 08:03:49;;;;;;;3.03;2.00;;;;;;;;;;5119597;28;20024;-86
2021/08/20 08:06:16;;;;;;;3.45;2.42;;;;;;;;;;5119736;28;20028;-87
2021/08/20 08:08:43;;;;;;;4.55;2.28;;;;;;;;;;5119202;28;20418;-87
2021/08/20 08:11:10;;;;;;;4.50;2.50;;;;;;;;;;5119343;28;20024;-86
2021/08/20 08:13:36;;;;;;;3.78;2.22;;;;;;;;;;5100964;28;20049;-87
2021/08/20 08:16:02;;;;;;;3.45;2.00;;;;;;;;;;5101359;28;20046;-87
2021/08/20 08:18:29;;;;;;;4.85;1.80;;;;;;;;;;5119068;28;20401;-85
2021/08/20 08:20:55;;;;;;;3.38;1.90;;;;;;;;;;5119120;28;20470;-88
2021/08/20 08:23:21;;;;;;;4.20;2.13;;;;;;;;;;5118985;28;20023;-85
2021/08/20 08:25:47;;;;;;;2.28;1.85;;;;;;;;;;5118965;28;20313;-86
2021/08/20 08:28:13;;;;;;;2.53;1.90;;;;;;;;;;5119184;28;20393;-87
2021/08/20 08:30:40;;;;;;;3.85;1.90;;;;;;;;;;5118805;28;20019;-87
2021/08/20 08:33:08;;;;;;;4.00;1.80;;;;;;;;;;5118527;28;20059;-87
2021/08/20 08:35:34;;;;;;;3.13;2.00;;;;;;;;;;5118992;28;20073;-87
2021/08/20 08:38:02;;;;;;;2.25;1.80;;;;;;;;;;5118786;28;20030;-87
2021/08/20 08:40:29;;;;;;;2.40;2.08;;;;;;;;;;5118738;28;20136;-87
2021/08/20 08:42:56;;;;;;;4.85;1.90;;;;;;;;;;5118645;28;20023;-87
2021/08/20 08:45:22;;;;;;;2.13;1.80;;;;;;;;;;5118525;28;20027;-87
2021/08/20 08:47:49;;;;;;;7.45;2.28;;;;;;;;;;5118782;28;20024;-87
2021/08/20 08:50:15;;;;;;;7.18;2.30;;;;;;;;;;5118465;28;20031;-87
2021/08/20 08:52:42;;;;;;;3.10;2.00;;;;;;;;;;5118491;28;20412;-87
2021/08/20 08:55:08;;;;;;;2.47;1.60;;;;;;;;;;5118337;28;20072;-86
2021/08/20 08:57:34;;;;;;;4.43;1.90;;;;;;;;;;5118779;28;20024;-87
2021/08/20 09:00:00;;;;;;;3.92;1.88;;;;;;;;;;5099816;28;20040;-87
2021/08/20 09:02:27;;;;;;;5.57;1.83;;;;;;;;;;5118469;28;20080;-87
2021/08/20 09:04:54;;;;;;;3.72;1.85;;;;;;;;;;5118566;28;20020;-87
2021/08/20 09:07:21;;;;;;;4.00;2.30;;;;;;;;;;5118304;28;20024;-87
2021/08/20 09:09:47;;;;;;;3.90;1.83;;;;;;;;;;5100239;28;20106;-87
2021/08/20 09:12:26;;;;;;;2.20;1.70;;;;;;;;;;5118118;28;20026;-86
2021/08/20 09:14:57;;;;;;;5.63;1.98;;;;;;;;;;5118145;28;20330;-87
2021/08/20 09:17:34;;;;;;;2.40;1.63;;;;;;;;;;5099870;28;20034;-87
2021/08/20 09:20:17;;;;;;;2.80;2.00;;;;;;;;;;5118240;28;20027;-86
2021/08/20 09:22:43;;;;;;;4.15;1.58;;;;;;;;;;5117532;28;20020;-86
2021/08/20 09:25:28;;;;;;;5.88;1.83;;;;;;;;;;5118763;28;20030;-87
2021/08/20 09:28:08;;;;;;;4.43;1.67;;;;;;;;;;5117615;28;20024;-86
2021/08/20 09:30:34;;;;;;;2.10;1.63;;;;;;;;;;5100016;28;20114;-88
2021/08/20 09:33:00;;;;;;;3.50;1.90;;;;;;;;;;5118026;28;20032;-86
2021/08/20 09:35:29;;;;;;;2.40;1.40;;;;;;;;;;5117929;28;20043;-86
2021/08/20 09:38:06;;;;;;;4.25;1.80;;;;;;;;;;5117817;28;20028;-87
2021/08/20 09:40:32;;;;;;;4.30;1.83;;;;;;;;;;5117978;28;20035;-86
2021/08/20 09:43:10;;;;;;;3.80;1.80;;;;;;;;;;5118020;28;20031;-87
2021/08/20 09:45:38;;;;;;;2.08;1.33;;;;;;;;;;5117962;28;20027;-87
2021/08/20 09:48:07;;;;;;;1.58;1.40;;;;;;;;;;5117472;28;20027;-87
2021/08/20 09:50:43;;;;;;;2.55;1.75;;;;;;;;;;5099890;28;20143;-86
2021/08/20 09:53:15;;;;;;;2.22;1.67;;;;;;;;;;5119953;28;20027;-86
2021/08/20 09:55:43;;;;;;;1.70;1.40;;;;;;;;;;5122090;28;20125;-87
2021/08/20 09:58:11;;;;;;;2.38;1.60;;;;;;;;;;5121549;28;20023;-85
2021/08/20 10:00:38;;;;;;;2.35;1.80;;;;;;;;;;5116133;28;20027;-86
2021/08/20 10:03:08;;;;;;;1.95;1.45;;;;;;;;;;5121664;28;20024;-86
2021/08/20 10:05:34;;;;;;;2.65;1.58;;;;;;;;;;5121679;28;20413;-86
2021/08/20 10:08:01;;;;;;;1.75;1.50;;;;;;;;;;5122025;28;20027;-86
2021/08/20 10:10:28;;;;;;;3.03;1.50;;;;;;;;;;5103023;28;20034;-86
2021/08/20 10:12:55;;;;;;;2.25;1.63;;;;;;;;;;5121485;28;20047;-86
2021/08/20 10:15:21;;;;;;;2.35;1.70;;;;;;;;;;5121507;28;20028;-86
2021/08/20 10:17:47;;;;;;;2.53;1.50;;;;;;;;;;5103333;28;20055;-87
2021/08/20 10:20:14;;;;;;;2.28;1.40;;;;;;;;;;5121484;28;20027;-87
2021/08/20 10:22:41;;;;;;;3.95;1.83;;;;;;;;;;5102657;28;20027;-87
2021/08/20 10:25:08;;;;;;;2.50;1.60;;;;;;;;;;5121378;28;20102;-86
2021/08/20 10:27:36;;;;;;;2.85;1.80;;;;;;;;;;5121217;28;20065;-86
2021/08/20 10:30:02;;;;;;;9.20;1.80;;;;;;;;;;5121131;28;20028;-87
2021/08/20 10:32:28;;;;;;;4.55;1.70;;;;;;;;;;5086397;28;20027;-87
2021/08/20 10:34:54;;;;;;;2.90;1.67;;;;;;;;;;5120871;28;20023;-85
2021/08/20 10:37:23;;;;;;;2.25;1.60;;;;;;;;;;5121291;28;20047;-87
2021/08/20 10:39:50;;;;;;;7.20;1.92;;;;;;;;;;5102775;28;20077;-86
2021/08/20 10:42:48;;;;;;;5.45;1.98;;;;;;;;;;5102797;28;20076;-86
2021/08/20 10:45:14;;;;;;;2.20;1.70;;;;;;;;;;5015513;28;20337;-84
2021/08/20 10:47:42;;;;;;;2.97;1.73;;;;;;;;;;5002871;28;20026;-86
2021/08/20 10:50:08;;;;;;;11.18;1.85;;;;;;;;;;5018650;28;20068;-86
2021/08/20 10:52:35;;;;;;;3.70;1.40;;;;;;;;;;5018670;28;20025;-84
2021/08/20 10:55:03;;;;;;;4.07;1.65;;;;;;;;;;5016055;28;20034;-83
2021/08/20 10:57:44;;;;;;;7.70;1.85;;;;;;;;;;5001553;28;20396;-83
2021/08/20 11:00:10;;;;;;;;;;;;;;;;;;4999776;28;20034;-84
2021/08/20 11:02:43;;;;;;;3.20;1.55;;;;;;;;;;5001772;28;19936;-85
2021/08/20 11:05:10;;;;;;;2.47;1.70;;;;;;;;;;5017099;28;20077;-85
2021/08/20 11:07:37;;;;;;;3.45;1.60;;;;;;;;;;5018301;28;20022;-86
2021/08/20 11:10:09;;;;;;;3.33;1.90;;;;;;;;;;5018177;28;20026;-85
2021/08/20 11:12:47;;;;;;;7.07;1.73;;;;;;;;;;5018069;28;20068;-86
2021/08/20 11:15:19;;;;;;;2.22;1.80;;;;;;;;;;5017953;28;20033;-84
2021/08/20 11:17:49;;;;;;;5.47;1.80;;;;;;;;;;5018197;28;20030;-86
2021/08/20 11:20:19;;;;;;;2.07;1.60;;;;;;;;;;5018345;28;20068;-85
2021/08/20 11:22:45;;;;;;;3.80;1.63;;;;;;;;;;5119328;28;20413;-86
2021/08/20 11:25:22;;;;;;;3.72;1.83;;;;;;;;;;5120088;28;20030;-86
2021/08/20 11:27:55;;;;;;;2.92;1.58;;;;;;;;;;5101685;28;20035;-86
2021/08/20 11:30:21;;;;;;;5.80;1.85;;;;;;;;;;5119904;28;20402;-86
2021/08/20 11:32:47;;;;;;;3.75;1.60;;;;;;;;;;5101990;28;20028;-87
2021/08/20 11:35:25;;;;;;;4.43;1.90;;;;;;;;;;5101740;28;20059;-87
2021/08/20 11:37:55;;;;;;;2.15;1.30;;;;;;;;;;5101972;28;20033;-88
2021/08/20 11:40:21;;;;;;;2.08;1.52;;;;;;;;;;5120171;28;20073;-87
2021/08/20 11:43:05;;;;;;;2.40;1.63;;;;;;;;;;5119826;28;20108;-87
2021/08/20 11:45:31;;;;;;;4.22;1.58;;;;;;;;;;5101620;28;20020;-86
2021/08/20 11:48:01;;;;;;;2.20;1.55;;;;;;;;;;5119679;28;20044;-87
2021/08/20 11:50:31;;;;;;;2.50;1.95;;;;;;;;;;5119833;28;20023;-85
2021/08/20 11:52:58;;;;;;;6.07;1.50;;;;;;;;;;5119363;28;20020;-86
2021/08/20 11:55:25;;;;;;;2.20;1.42;;;;;;;;;;5101509;28;20298;-86
2021/08/20 11:57:51;;;;;;;6.05;1.73;;;;;;;;;;5119397;28;20027;-86
2021/08/20 12:00:17;;;;;;;4.30;1.60;;;;;;;;;;5101113;28;20040;-86
2021/08/20 12:02:44;;;;;;;2.00;1.48;;;;;;;;;;5119121;28;20028;-86
2021/08/20 12:05:17;;;;;;;2.67;1.42;;;;;;;;;;5101521;28;20034;-87
2021/08/20 12:07:44;;;;;;;2.42;1.50;;;;;;;;;;5119519;28;20043;-86
2021/08/20 12:10:10;;;;;;;2.25;1.45;;;;;;;;;;5101416;28;20031;-87
2021/08/20 12:12:38;;;;;;;4.28;1.70;;;;;;;;;;5119156;28;20472;-86
2021/08/20 12:15:05;;;;;;;2.80;1.88;;;;;;;;;;5100878;28;20030;-86
2021/08/20 12:17:32;;;;;;;2.80;1.52;;;;;;;;;;5119137;28;20023;-86
2021/08/20 12:19:59;;;;;;;2.60;1.83;;;;;;;;;;5119048;28;20094;-86
2021/08/20 12:22:39;;;;;;;3.13;1.83;;;;;;;;;;5119045;28;20020;-87
2021/08/20 12:25:16;;;;;;;2.13;1.60;;;;;;;;;;5098750;28;20114;-86
2021/08/20 12:27:42;;;;;;;2.00;1.60;;;;;;;;;;5118552;28;20051;-86
2021/08/20 12:30:10;;;;;;;2.47;1.50;;;;;;;;;;5100371;28;20481;-86
2021/08/20 12:32:38;;;;;;;1.42;1.25;;;;;;;;;;5118434;28;20055;-86
2021/08/20 12:35:07;;;;;;;2.88;1.38;;;;;;;;;;5099576;28;20057;-86
2021/08/20 12:37:34;;;;;;;2.05;1.52;;;;;;;;;;5099048;28;20063;-86
2021/08/20 12:40:02;;;;;;;1.80;1.40;;;;;;;;;;5117770;28;20023;-86
2021/08/20 12:42:29;;;;;;;2.05;1.45;;;;;;;;;;5117745;28;20106;-86
2021/08/20 12:45:15;;;;;;;2.72;1.50;;;;;;;;;;5118399;28;20445;-86
2021/08/20 12:47:42;;;;;;;2.67;1.92;;;;;;;;;;5118575;28;20024;-86
2021/08/20 12:50:12;;;;;;;2.05;1.50;;;;;;;;;;5100194;28;20356;-86
2021/08/20 12:52:39;;;;;;;2.00;1.40;;;;;;;;;;5118528;28;20027;-86
2021/08/20 12:55:24;;;;;;;2.50;1.55;;;;;;;;;;5100540;28;20047;-86
2021/08/20 12:57:50;;;;;;;2.00;1.60;;;;;;;;;;5118382;28;20077;-86
2021/08/20 13:00:16;;;;;;;3.17;1.35;;;;;;;;;;5118510;28;20349;-87
2021/08/20 13:02:42;;;;;;;2.17;1.70;;;;;;;;;;5118210;28;20027;-87
2021/08/20 13:05:08;;;;;;;1.85;1.55;;;;;;;;;;5099438;28;20036;-86
2021/08/20 13:07:36;;;;;;;3.42;1.42;;;;;;;;;;5099748;28;20449;-87
2021/08/20 13:10:02;;;;;;;3.00;1.55;;;;;;;;;;5118190;28;20016;-87
2021/08/20 13:12:29;;;;;;;2.95;1.60;;;;;;;;;;5099905;28;20082;-87
2021/08/20 13:14:55;;;;;;;2.10;1.35;;;;;;;;;;5117824;28;20023;-87
2021/08/20 13:17:21;;;;;;;2.53;1.65;;;;;;;;;;5117819;28;20035;-87
2021/08/20 13:19:47;;;;;;;3.58;1.63;;;;;;;;;;5118208;28;20028;-87
2021/08/20 13:22:13;;;;;;;2.88;1.60;;;;;;;;;;5099437;28;20114;-87
2021/08/20 13:24:40;;;;;;;3.10;1.50;;;;;;;;;;5117899;28;20020;-86
2021/08/20 13:27:06;;;;;;;3.53;1.77;;;;;;;;;;5098749;28;20326;-86
2021/08/20 13:29:33;;;;;;;2.72;1.80;;;;;;;;;;5117988;28;20341;-86
2021/08/20 13:32:00;;;;;;;2.95;1.77;;;;;;;;;;5117710;28;20027;-85
2021/08/20 13:34:26;;;;;;;2.65;1.70;;;;;;;;;;5099113;28;20036;-85
2021/08/20 13:36:53;;;;;;;2.67;1.70;;;;;;;;;;5099644;28;20519;-86
2021/08/20 13:39:19;;;;;;;2.13;1.70;;;;;;;;;;5117783;28;20027;-86
2021/08/20 13:41:45;;;;;;;2.45;1.58;;;;;;;;;;5117683;28;20044;-86
2021/08/20 13:44:11;;;;;;;2.80;1.80;;;;;;;;;;5098699;28;20038;-86
2021/08/20 13:46:37;;;;;;;2.40;1.60;;;;;;;;;;5117831;28;20089;-86
2021/08/20 13:49:04;;;;;;;2.63;1.65;;;;;;;;;;5117790;28;20026;-86
2021/08/20 13:51:30;;;;;;;2.20;1.67;;;;;;;;;;5117911;28;20019;-87
2021/08/20 13:53:57;;;;;;;2.70;1.70;;;;;;;;;;5117518;28;20418;-86
2021/08/20 13:56:23;;;;;;;4.03;1.48;;;;;;;;;;5099215;28;20414;-85
2021/08/20 13:58:49;;;;;;;2.78;1.80;;;;;;;;;;5117062;28;20043;-76
2021/08/20 14:01:15;;;;;;;3.33;1.52;;;;;;;;;;5117192;28;20027;-77
2021/08/20 14:03:42;;;;;;;2.17;1.50;;;;;;;;;;5116790;28;20049;-76
2021/08/20 14:06:09;;;;;;;3.10;1.50;;;;;;;;;;5117247;28;20020;-76
2021/08/20 14:08:35;;;;;;;1.73;1.33;;;;;;;;;;5116988;28;20031;-76
2021/08/20 14:11:08;;;;;;;6.75;2.33;;;;;;;;;;5098874;28;20035;-76
2021/08/20 14:13:34;;;;;;;1.85;1.38;;;;;;;;;;5116830;28;20453;-76
2021/08/20 14:16:00;;;;;;;4.50;1.55;;;;;;;;;;5098685;28;20422;-76
2021/08/20 14:18:26;;;;;;;2.05;1.30;;;;;;;;;;5098121;28;20032;-76
2021/08/20 14:20:53;;;;;;;3.60;1.75;;;;;;;;;;5098836;28;20104;-76
2021/08/20 14:23:19;;;;;;;6.45;1.77;;;;;;;;;;5116787;28;20024;-76
2021/08/20 14:25:45;;;;;;;3.05;1.70;;;;;;;;;;5098608;28;20024;-76
2021/08/20 14:28:12;;;;;;;2.72;1.50;;;;;;;;;;5116634;28;20409;-76
2021/08/20 14:30:38;;;;;;;6.35;1.75;;;;;;;;;;5117056;28;20058;-76
2021/08/20 14:33:05;;;;;;;2.28;1.50;;;;;;;;;;5116931;28;20065;-76
2021/08/20 14:35:31;;;;;;;1.88;1.10;;;;;;;;;;5116760;28;20421;-76
2021/08/20 14:37:57;;;;;;;3.08;1.60;;;;;;;;;;5098708;28;20365;-76
2021/08/20 14:40:23;;;;;;;2.58;1.70;;;;;;;;;;5101267;28;20031;-76
2021/08/20 14:42:50;;;;;;;4.28;1.30;;;;;;;;;;5120516;28;20031;-76
2021/08/20 14:45:16;;;;;;;3.78;1.50;;;;;;;;;;5102028;28;20073;-76
2021/08/20 14:47:42;;;;;;;2.63;1.70;;;;;;;;;;5120395;28;20020;-76
2021/08/20 14:50:09;;;;;;;3.03;1.60;;;;;;;;;;5101423;28;20023;-76
2021/08/20 14:52:39;;;;;;;1.92;1.50;;;;;;;;;;5102309;28;20051;-76
2021/08/20 14:55:06;;;;;;;2.53;1.40;;;;;;;;;;5120288;28;20489;-77
2021/08/20 14:57:34;;;;;;;4.15;1.50;;;;;;;;;;5120028;28;20287;-76
2021/08/20 15:00:00;;;;;;;4.97;1.70;;;;;;;;;;5120231;28;20028;-76
2021/08/20 15:02:26;;;;;;;2.03;1.42;;;;;;;;;;5120092;28;20035;-76
2021/08/20 15:04:53;;;;;;;4.72;1.50;;;;;;;;;;5120161;28;20027;-76
2021/08/20 15:07:19;;;;;;;2.97;1.67;;;;;;;;;;5119947;28;20410;-75
2021/08/20 15:09:45;;;;;;;4.85;1.60;;;;;;;;;;5101403;28;20031;-75
2021/08/20 15:12:11;;;;;;;3.08;1.30;;;;;;;;;;5119677;28;20015;-76
2021/08/20 15:14:37;;;;;;;3.63;1.63;;;;;;;;;;5119779;28;20114;-77
2021/08/20 15:17:05;;;;;;;2.10;1.45;;;;;;;;;;5119720;28;20069;-76
2021/08/20 15:19:34;;;;;;;3.03;1.63;;;;;;;;;;5101338;28;20587;-76
2021/08/20 15:22:00;;;;;;;1.40;1.30;;;;;;;;;;5119742;28;20027;-76
2021/08/20 15:24:26;;;;;;;7.00;2.20;;;;;;;;;;5119396;28;20070;-76
2021/08/20 15:26:53;;;;;;;6.75;2.20;;;;;;;;;;5119405;28;20466;-76